createdAt,value
2019-05-06T00:00:25.673Z,2.47
2019-05-06T00:02:54.658Z,2.63
2019-05-06T00:05:25.354Z,2.70
2019-05-06T00:07:54.753Z,2.60
2019-05-06T00:10:34.177Z,3.20
2019-05-06T00:13:04.390Z,2.60
2019-05-06T00:15:34.329Z,2.40
2019-05-06T00:18:04.509Z,2.93
2019-05-06T00:20:34.779Z,2.47
2019-05-06T00:23:05.589Z,2.53
2019-05-06T00:25:35.871Z,2.60
2019-05-06T00:28:18.397Z,2.50
2019-05-06T00:30:48.719Z,2.47
2019-05-06T00:33:17.279Z,2.40
2019-05-06T00:35:45.869Z,2.73
2019-05-06T00:38:14.519Z,2.57
2019-05-06T00:40:44.811Z,2.67
2019-05-06T00:43:14.055Z,2.70
2019-05-06T00:45:44.300Z,2.90
2019-05-06T00:48:13.982Z,2.77
2019-05-06T00:50:44.121Z,2.60
2019-05-06T00:53:14.464Z,2.70
2019-05-06T00:55:44.572Z,2.73
2019-05-06T00:58:14.260Z,2.70
2019-05-06T01:00:44.270Z,3.00
2019-05-06T01:03:14.120Z,2.70
2019-05-06T01:05:44.420Z,2.70
2019-05-06T01:08:14.160Z,3.00
2019-05-06T01:10:44.847Z,2.80
2019-05-06T01:13:31.239Z,2.77
2019-05-06T01:15:59.862Z,2.33
2019-05-06T01:18:28.688Z,2.63
2019-05-06T01:21:14.347Z,2.83
2019-05-06T01:23:44.426Z,2.60
2019-05-06T01:26:15.005Z,2.83
2019-05-06T01:28:44.918Z,2.80
2019-05-06T01:31:14.152Z,2.80
2019-05-06T01:33:45.091Z,3.13
2019-05-06T01:36:14.128Z,2.77
2019-05-06T01:39:01.003Z,2.77
2019-05-06T01:41:44.759Z,3.00
2019-05-06T01:44:13.749Z,2.43
2019-05-06T01:46:44.602Z,2.30
2019-05-06T01:49:13.806Z,2.30
2019-05-06T01:51:43.826Z,2.90
2019-05-06T01:54:14.142Z,2.70
2019-05-06T01:56:44.513Z,2.60
2019-05-06T01:59:14.021Z,2.87
2019-05-06T02:01:54.787Z,2.53
2019-05-06T02:04:13.932Z,2.80
2019-05-06T02:06:43.908Z,2.57
2019-05-06T02:09:15.496Z,2.20
2019-05-06T02:11:47.655Z,2.87
2019-05-06T02:14:15.142Z,2.73
2019-05-06T02:16:44.376Z,3.00
2019-05-06T02:19:14.799Z,2.80
2019-05-06T02:21:47.899Z,2.47
2019-05-06T02:24:20.875Z,2.33
2019-05-06T02:26:49.503Z,3.10
2019-05-06T02:29:28.806Z,2.50
2019-05-06T02:32:24.793Z,2.30
2019-05-06T02:34:59.352Z,2.50
2019-05-06T02:37:46.893Z,2.10
2019-05-06T02:40:27.210Z,2.10
2019-05-06T02:42:56.929Z,2.20
2019-05-06T02:45:25.850Z,2.10
2019-05-06T02:47:59.308Z,2.23
2019-05-06T02:50:33.912Z,2.00
2019-05-06T02:53:02.961Z,2.40
2019-05-06T02:55:35.426Z,2.10
2019-05-06T02:58:02.814Z,2.20
2019-05-06T03:00:32.989Z,2.30
2019-05-06T03:03:02.859Z,2.37
2019-05-06T03:05:33.309Z,2.03
2019-05-06T03:08:03.259Z,2.40
2019-05-06T03:10:32.895Z,2.37
2019-05-06T03:13:03.051Z,1.90
2019-05-06T03:15:34.297Z,2.30
2019-05-06T03:18:03.175Z,1.90
2019-05-06T03:20:43.945Z,2.23
2019-05-06T03:23:14.341Z,2.63
2019-05-06T03:25:44.870Z,2.70
2019-05-06T03:28:13.493Z,2.90
2019-05-06T03:30:45.919Z,2.70
2019-05-06T03:33:38.321Z,3.00
2019-05-06T03:35:58.037Z,2.40
2019-05-06T03:38:13.782Z,2.70
2019-05-06T03:40:45.747Z,2.80
2019-05-06T03:43:13.685Z,2.70
2019-05-06T03:45:44.668Z,2.33
2019-05-06T03:48:15.465Z,2.60
2019-05-06T03:50:44.265Z,2.83
2019-05-06T03:53:14.103Z,2.50
2019-05-06T03:55:47.088Z,2.37
2019-05-06T03:58:16.579Z,2.80
2019-05-06T04:00:46.423Z,2.67
2019-05-06T04:03:14.979Z,2.33
2019-05-06T04:05:44.590Z,2.40
2019-05-06T04:08:13.346Z,2.30
2019-05-06T04:10:43.534Z,2.77
2019-05-06T04:13:13.500Z,2.50
2019-05-06T04:15:56.844Z,2.50
2019-05-06T04:18:45.696Z,2.60
2019-05-06T04:21:18.713Z,2.70
2019-05-06T04:23:54.612Z,2.60
2019-05-06T04:26:46.077Z,2.57
2019-05-06T04:29:13.106Z,2.50
2019-05-06T04:31:43.722Z,2.77
2019-05-06T04:34:18.862Z,2.57
2019-05-06T04:36:44.209Z,2.70
2019-05-06T04:39:13.618Z,2.53
2019-05-06T04:41:43.284Z,2.67
2019-05-06T04:44:13.833Z,2.63
2019-05-06T04:46:44.421Z,2.73
2019-05-06T04:49:15.004Z,2.70
2019-05-06T04:51:43.803Z,2.73
2019-05-06T04:54:13.357Z,2.67
2019-05-06T04:56:43.671Z,3.30
2019-05-06T04:59:13.858Z,2.83
2019-05-06T05:01:45.632Z,3.00
2019-05-06T05:04:24.526Z,2.70
2019-05-06T05:06:44.496Z,2.70
2019-05-06T05:09:16.997Z,3.10
2019-05-06T05:11:48.293Z,3.07
2019-05-06T05:14:25.824Z,2.80
2019-05-06T05:17:08.340Z,3.07
2019-05-06T05:19:43.845Z,3.03
2019-05-06T05:22:12.560Z,2.90
2019-05-06T05:24:42.560Z,3.00
2019-05-06T05:27:12.524Z,3.00
2019-05-06T05:29:42.386Z,3.30
2019-05-06T05:32:12.790Z,2.93
2019-05-06T05:34:43.432Z,3.20
2019-05-06T05:37:12.181Z,2.80
2019-05-06T05:39:42.583Z,3.43
2019-05-06T05:42:13.311Z,3.30
2019-05-06T05:44:44.116Z,3.20
2019-05-06T05:47:12.800Z,3.30
2019-05-06T05:49:59.193Z,2.90
2019-05-06T05:52:28.009Z,3.60
2019-05-06T05:54:56.693Z,3.50
2019-05-06T05:57:25.380Z,3.20
2019-05-06T05:59:54.085Z,3.23
2019-05-06T06:02:22.727Z,3.37
2019-05-06T06:04:57.095Z,3.47
2019-05-06T06:07:22.937Z,3.73
2019-05-06T06:09:56.690Z,3.37
2019-05-06T06:12:25.743Z,3.70
2019-05-06T06:15:02.336Z,3.80
2019-05-06T06:17:32.630Z,3.30
2019-05-06T06:20:19.312Z,3.70
2019-05-06T06:22:47.999Z,3.87
2019-05-06T06:25:16.558Z,3.40
2019-05-06T06:27:52.093Z,3.53
2019-05-06T06:30:22.217Z,3.73
2019-05-06T06:32:52.775Z,4.37
2019-05-06T06:35:22.913Z,4.80
2019-05-06T06:38:09.546Z,4.07
2019-05-06T06:40:38.163Z,3.53
2019-05-06T06:43:08.629Z,3.40
2019-05-06T06:45:37.225Z,3.63
2019-05-06T06:48:06.195Z,4.37
2019-05-06T06:50:35.367Z,3.70
2019-05-06T06:53:04.032Z,3.60
2019-05-06T06:55:32.688Z,3.30
2019-05-06T06:58:03.857Z,3.57
2019-05-06T07:00:42.351Z,4.00
2019-05-06T07:03:21.822Z,4.50
2019-05-06T07:05:52.824Z,3.57
2019-05-06T07:08:34.053Z,3.70
2019-05-06T07:10:52.509Z,3.93
2019-05-06T07:13:23.205Z,3.40
2019-05-06T07:15:52.086Z,3.67
2019-05-06T07:18:22.555Z,3.60
2019-05-06T07:21:07.706Z,4.00
2019-05-06T07:23:37.050Z,5.23
2019-05-06T07:26:05.712Z,3.90
2019-05-06T07:28:34.334Z,4.50
2019-05-06T07:31:17.595Z,3.97
2019-05-06T07:33:33.689Z,4.23
2019-05-06T07:36:02.409Z,4.33
2019-05-06T07:38:32.771Z,4.53
2019-05-06T07:41:04.565Z,4.77
2019-05-06T07:43:42.084Z,3.93
2019-05-06T07:46:28.238Z,4.43
2019-05-06T07:48:56.882Z,4.30
2019-05-06T07:51:25.539Z,4.43
2019-05-06T07:53:54.325Z,4.10
2019-05-06T07:56:22.961Z,4.43
2019-05-06T07:58:53.220Z,4.50
2019-05-06T08:01:26.201Z,5.00
2019-05-06T08:03:55.012Z,4.63
2019-05-06T08:06:23.593Z,4.93
2019-05-06T08:08:53.804Z,4.77
2019-05-06T08:11:25.732Z,4.83
2019-05-06T08:13:53.025Z,4.70
2019-05-06T08:16:22.626Z,5.00
2019-05-06T08:18:52.569Z,5.10
2019-05-06T08:21:23.624Z,4.67
2019-05-06T08:23:53.888Z,4.50
2019-05-06T08:26:22.677Z,4.50
2019-05-06T08:28:52.602Z,4.90
2019-05-06T08:31:22.723Z,5.23
2019-05-06T08:33:52.387Z,4.60
2019-05-06T08:36:26.205Z,5.10
2019-05-06T08:38:58.905Z,5.03
2019-05-06T08:41:28.207Z,5.13
2019-05-06T08:43:57.295Z,4.80
2019-05-06T08:46:26.223Z,5.23
2019-05-06T08:48:54.780Z,5.37
2019-05-06T08:51:42.673Z,4.60
2019-05-06T08:54:18.773Z,4.77
2019-05-06T08:56:47.363Z,5.07
2019-05-06T08:59:15.988Z,5.03
2019-05-06T09:01:53.337Z,4.73
2019-05-06T09:04:22.956Z,4.60
2019-05-06T09:06:53.401Z,5.00
2019-05-06T09:09:22.489Z,5.10
2019-05-06T09:11:53.265Z,4.80
2019-05-06T09:14:23.214Z,5.20
2019-05-06T09:16:53.833Z,4.67
2019-05-06T09:19:23.382Z,4.97
2019-05-06T09:21:53.291Z,4.20
2019-05-06T09:24:23.062Z,4.60
2019-05-06T09:26:53.896Z,4.17
2019-05-06T09:29:32.997Z,4.60
2019-05-06T09:32:06.129Z,3.70
2019-05-06T09:34:36.330Z,4.07
2019-05-06T09:37:13.331Z,4.13
2019-05-06T09:39:44.555Z,3.50
2019-05-06T09:42:13.776Z,4.60
2019-05-06T09:44:44.296Z,4.43
2019-05-06T09:47:23.638Z,4.63
2019-05-06T09:49:53.047Z,4.30
2019-05-06T09:52:23.159Z,4.13
2019-05-06T09:54:53.738Z,3.97
2019-05-06T09:57:27.424Z,4.27
2019-05-06T09:59:56.124Z,4.47
2019-05-06T10:02:24.788Z,3.77
2019-05-06T10:04:53.374Z,4.20
2019-05-06T10:07:22.690Z,3.83
2019-05-06T10:09:52.608Z,4.63
2019-05-06T10:12:21.716Z,3.80
2019-05-06T10:14:52.956Z,4.17
2019-05-06T10:17:20.866Z,3.93
2019-05-06T10:19:49.505Z,4.03
2019-05-06T10:22:18.275Z,4.47
2019-05-06T10:24:46.874Z,3.97
2019-05-06T10:27:15.543Z,3.80
2019-05-06T10:29:45.835Z,4.13
2019-05-06T10:32:32.821Z,4.03
2019-05-06T10:35:02.859Z,4.10
2019-05-06T10:37:46.503Z,3.70
2019-05-06T10:40:18.421Z,4.30
2019-05-06T10:42:55.802Z,3.50
2019-05-06T10:45:30.222Z,4.03
2019-05-06T10:48:02.183Z,3.73
2019-05-06T10:50:32.109Z,4.03
2019-05-06T10:53:17.148Z,4.17
2019-05-06T10:55:47.677Z,4.30
2019-05-06T10:58:16.303Z,3.40
2019-05-06T11:00:45.500Z,4.00
2019-05-06T11:03:15.778Z,4.40
2019-05-06T11:05:44.703Z,3.70
2019-05-06T11:08:13.631Z,4.73
2019-05-06T11:10:45.191Z,4.23
2019-05-06T11:13:13.063Z,4.07
2019-05-06T11:15:43.338Z,4.00
2019-05-06T11:18:13.517Z,3.80
2019-05-06T11:20:43.900Z,4.27
2019-05-06T11:23:14.187Z,4.50
2019-05-06T11:25:43.386Z,4.23
2019-05-06T11:28:30.019Z,4.90
2019-05-06T11:31:02.528Z,4.60
2019-05-06T11:33:37.598Z,4.93
2019-05-06T11:36:16.587Z,4.73
2019-05-06T11:38:48.121Z,5.17
2019-05-06T11:41:15.420Z,6.27
2019-05-06T11:43:44.092Z,4.80
2019-05-06T11:46:12.672Z,5.63
2019-05-06T11:48:43.178Z,5.03
2019-05-06T11:51:13.679Z,4.73
2019-05-06T11:53:42.335Z,5.43
2019-05-06T11:56:12.737Z,5.30
2019-05-06T11:58:43.177Z,6.57
2019-05-06T12:01:13.585Z,7.30
2019-05-06T12:03:42.690Z,5.40
2019-05-06T12:06:13.056Z,5.03
2019-05-06T12:08:43.175Z,5.13
2019-05-06T12:11:12.571Z,5.50
2019-05-06T12:13:42.522Z,5.50
2019-05-06T12:16:14.030Z,5.13
2019-05-06T12:18:42.455Z,5.20
2019-05-06T12:21:18.143Z,5.00
2019-05-06T12:23:44.778Z,5.70
2019-05-06T12:26:13.289Z,5.47
2019-05-06T12:28:43.443Z,5.43
2019-05-06T12:31:13.714Z,6.20
2019-05-06T12:33:43.939Z,6.03
2019-05-06T12:36:18.242Z,4.77
2019-05-06T12:39:06.589Z,4.67
2019-05-06T12:41:36.786Z,4.87
2019-05-06T12:44:05.479Z,6.47
2019-05-06T12:46:35.749Z,5.50
2019-05-06T12:49:04.681Z,5.27
2019-05-06T12:51:33.306Z,5.90
2019-05-06T12:54:03.519Z,4.90
2019-05-06T12:56:32.716Z,5.10
2019-05-06T12:59:02.259Z,5.40
2019-05-06T13:01:34.092Z,5.60
2019-05-06T13:04:04.491Z,5.27
2019-05-06T13:06:33.481Z,5.57
2019-05-06T13:09:05.086Z,5.27
2019-05-06T13:11:32.408Z,4.90
2019-05-06T13:14:03.953Z,4.63
2019-05-06T13:16:33.462Z,4.57
2019-05-06T13:19:03.377Z,3.93
2019-05-06T13:21:32.726Z,4.23
2019-05-06T13:24:04.606Z,4.80
2019-05-06T13:26:33.313Z,4.67
2019-05-06T13:29:04.362Z,4.70
2019-05-06T13:31:33.182Z,4.53
2019-05-06T13:34:06.286Z,4.70
2019-05-06T13:36:35.016Z,4.90
2019-05-06T13:39:13.708Z,4.67
2019-05-06T13:41:35.512Z,4.47
2019-05-06T13:44:08.783Z,5.00
2019-05-06T13:46:39.048Z,5.17
2019-05-06T13:49:09.611Z,4.63
2019-05-06T13:51:54.882Z,4.87
2019-05-06T13:54:23.582Z,4.57
2019-05-06T13:56:52.301Z,4.50
2019-05-06T13:59:20.839Z,4.63
2019-05-06T14:01:59.993Z,4.90
2019-05-06T14:04:28.555Z,4.73
2019-05-06T14:06:57.139Z,4.60
2019-05-06T14:09:32.512Z,4.37
2019-05-06T14:11:56.168Z,4.73
2019-05-06T14:14:24.735Z,5.17
2019-05-06T14:16:53.502Z,4.60
2019-05-06T14:19:22.573Z,5.20
2019-05-06T14:21:52.342Z,5.03
2019-05-06T14:24:22.257Z,4.83
2019-05-06T14:26:59.215Z,4.87
2019-05-06T14:29:47.622Z,4.23
2019-05-06T14:32:16.175Z,4.70
2019-05-06T14:34:44.860Z,4.67
2019-05-06T14:37:14.081Z,4.40
2019-05-06T14:39:52.595Z,4.73
2019-05-06T14:42:14.638Z,5.57
2019-05-06T14:44:43.421Z,4.40
2019-05-06T14:47:16.341Z,5.43
2019-05-06T14:49:45.187Z,5.53
2019-05-06T14:52:13.886Z,4.33
2019-05-06T14:54:44.047Z,4.53
2019-05-06T14:57:13.894Z,3.93
2019-05-06T14:59:43.289Z,3.87
2019-05-06T15:02:13.337Z,3.83
2019-05-06T15:04:43.483Z,3.63
2019-05-06T15:07:12.870Z,3.67
2019-05-06T15:09:55.875Z,4.10
2019-05-06T15:12:12.948Z,3.97
2019-05-06T15:14:42.521Z,3.90
2019-05-06T15:17:14.209Z,4.27
2019-05-06T15:19:42.945Z,4.03
2019-05-06T15:22:12.977Z,3.57
2019-05-06T15:24:42.644Z,3.47
2019-05-06T15:27:12.011Z,3.70
2019-05-06T15:29:42.371Z,3.47
2019-05-06T15:32:13.110Z,4.07
2019-05-06T15:34:46.138Z,3.23
2019-05-06T15:37:16.361Z,3.40
2019-05-06T15:39:44.940Z,3.87
2019-05-06T15:42:13.511Z,4.57
2019-05-06T15:44:42.563Z,3.80
2019-05-06T15:47:13.181Z,3.60
2019-05-06T15:49:42.007Z,3.60
2019-05-06T15:52:12.504Z,3.30
2019-05-06T15:54:43.035Z,3.10
2019-05-06T15:57:11.515Z,3.60
2019-05-06T15:59:42.186Z,3.47
2019-05-06T16:02:10.568Z,3.37
2019-05-06T16:04:39.159Z,3.13
2019-05-06T16:07:07.814Z,3.53
2019-05-06T16:09:36.392Z,3.73
2019-05-06T16:12:05.008Z,3.57
2019-05-06T16:14:35.135Z,3.17
2019-05-06T16:17:04.036Z,3.00
2019-05-06T16:19:33.598Z,2.77
2019-05-06T16:22:04.183Z,3.50
2019-05-06T16:24:36.737Z,3.40
2019-05-06T16:27:05.390Z,3.00
2019-05-06T16:29:36.694Z,3.20
2019-05-06T16:32:06.968Z,2.90
2019-05-06T16:34:36.513Z,3.50
2019-05-06T16:37:05.686Z,3.70
2019-05-06T16:39:34.306Z,3.30
2019-05-06T16:42:03.732Z,3.93
2019-05-06T16:44:32.506Z,3.50
2019-05-06T16:47:02.952Z,3.00
2019-05-06T16:49:33.160Z,3.67
2019-05-06T16:52:02.577Z,3.83
2019-05-06T16:54:34.400Z,4.17
2019-05-06T16:57:04.027Z,4.00
2019-05-06T16:59:33.435Z,3.73
2019-05-06T17:02:03.960Z,4.67
2019-05-06T17:04:34.159Z,3.40
2019-05-06T17:07:03.151Z,3.07
2019-05-06T17:09:32.745Z,4.90
2019-05-06T17:12:04.431Z,5.37
2019-05-06T17:14:32.582Z,4.43
2019-05-06T17:17:03.186Z,4.27
2019-05-06T17:19:33.087Z,3.83
2019-05-06T17:22:03.037Z,3.80
2019-05-06T17:24:33.104Z,3.30
2019-05-06T17:27:12.048Z,3.80
2019-05-06T17:29:48.049Z,4.40
2019-05-06T17:32:18.258Z,3.83
2019-05-06T17:34:48.492Z,3.73
2019-05-06T17:37:36.964Z,3.50
2019-05-06T17:40:11.774Z,3.23
2019-05-06T17:42:38.329Z,5.17
2019-05-06T17:45:09.512Z,4.07
2019-05-06T17:47:39.763Z,3.90
2019-05-06T17:50:08.585Z,4.13
2019-05-06T17:52:37.122Z,3.87
2019-05-06T17:55:05.849Z,3.27
2019-05-06T17:57:34.410Z,4.80
2019-05-06T18:00:04.316Z,3.87
2019-05-06T18:02:33.276Z,3.27
2019-05-06T18:05:02.948Z,3.13
2019-05-06T18:07:32.656Z,3.50
2019-05-06T18:10:03.059Z,3.63
2019-05-06T18:12:32.855Z,5.23
2019-05-06T18:15:02.701Z,4.43
2019-05-06T18:17:33.161Z,4.53
2019-05-06T18:20:02.927Z,5.47
2019-05-06T18:22:32.404Z,3.43
2019-05-06T18:25:02.251Z,5.80
2019-05-06T18:27:32.241Z,3.73
2019-05-06T18:30:13.450Z,4.60
2019-05-06T18:32:32.787Z,4.93
2019-05-06T18:35:02.630Z,4.13
2019-05-06T18:37:33.295Z,3.90
2019-05-06T18:40:02.214Z,4.70
2019-05-06T18:42:32.806Z,3.90
2019-05-06T18:45:02.750Z,6.40
2019-05-06T18:47:33.115Z,5.07
2019-05-06T18:50:02.349Z,5.37
2019-05-06T18:52:32.286Z,4.10
2019-05-06T18:55:01.253Z,4.87
2019-05-06T18:57:29.849Z,5.03
2019-05-06T18:59:58.468Z,4.33
2019-05-06T19:02:27.021Z,5.83
2019-05-06T19:04:57.225Z,4.30
2019-05-06T19:07:25.820Z,4.17
2019-05-06T19:09:58.981Z,3.90
2019-05-06T19:12:34.639Z,3.93
2019-05-06T19:14:57.875Z,3.97
2019-05-06T19:17:26.446Z,3.70
2019-05-06T19:19:55.013Z,3.77
2019-05-06T19:22:23.605Z,4.10
2019-05-06T19:24:52.483Z,3.50
2019-05-06T19:27:24.703Z,4.43
2019-05-06T19:29:54.349Z,4.20
2019-05-06T19:32:22.500Z,3.87
2019-05-06T19:34:52.991Z,4.20
2019-05-06T19:37:23.274Z,4.30
2019-05-06T19:39:52.594Z,3.50
2019-05-06T19:42:22.406Z,3.80
2019-05-06T19:44:52.781Z,3.63
2019-05-06T19:47:21.712Z,3.80
2019-05-06T19:49:50.372Z,3.37
2019-05-06T19:52:19.074Z,4.07
2019-05-06T19:54:47.742Z,3.33
2019-05-06T19:57:16.459Z,3.87
2019-05-06T19:59:45.114Z,3.67
2019-05-06T20:02:13.674Z,4.37
2019-05-06T20:04:44.321Z,4.57
2019-05-06T20:07:26.783Z,5.10
2019-05-06T20:10:12.353Z,5.00
2019-05-06T20:12:58.344Z,4.30
2019-05-06T20:15:35.625Z,4.43
2019-05-06T20:18:05.563Z,4.30
2019-05-06T20:20:35.122Z,4.33
2019-05-06T20:23:04.264Z,4.13
2019-05-06T20:25:32.987Z,4.53
2019-05-06T20:28:02.352Z,5.17
2019-05-06T20:30:32.658Z,4.40
2019-05-06T20:33:01.481Z,4.63
2019-05-06T20:35:32.143Z,5.23
2019-05-06T20:38:02.596Z,5.10
2019-05-06T20:40:32.740Z,4.90
2019-05-06T20:43:14.024Z,4.87
2019-05-06T20:45:35.057Z,5.07
2019-05-06T20:48:03.181Z,5.07
2019-05-06T20:50:32.285Z,5.10
2019-05-06T20:53:01.059Z,4.67
2019-05-06T20:55:32.607Z,4.90
2019-05-06T20:58:00.000Z,4.73
2019-05-06T21:00:28.563Z,5.30
2019-05-06T21:02:57.227Z,5.23
2019-05-06T21:05:25.790Z,4.63
2019-05-06T21:07:54.394Z,5.47
2019-05-06T21:10:22.995Z,5.33
2019-05-06T21:12:53.234Z,5.40
2019-05-06T21:15:22.900Z,5.00
2019-05-06T21:17:51.970Z,5.23
2019-05-06T21:20:20.726Z,5.43
2019-05-06T21:22:49.555Z,5.30
2019-05-06T21:25:18.305Z,4.70
2019-05-06T21:27:46.965Z,4.30
2019-05-06T21:30:15.975Z,4.83
2019-05-06T21:32:44.573Z,4.73
2019-05-06T21:35:13.572Z,5.23
2019-05-06T21:37:42.452Z,4.83
2019-05-06T21:40:12.277Z,4.63
2019-05-06T21:42:43.165Z,4.33
2019-05-06T21:45:12.552Z,4.77
2019-05-06T21:47:44.211Z,5.17
2019-05-06T21:50:12.135Z,4.40
2019-05-06T21:52:42.842Z,4.70
2019-05-06T21:55:13.115Z,4.87
2019-05-06T21:57:42.430Z,4.93
2019-05-06T22:00:16.832Z,4.57
2019-05-06T22:02:43.790Z,4.40
2019-05-06T22:05:13.411Z,4.70
2019-05-06T22:07:43.390Z,4.80
2019-05-06T22:10:12.804Z,5.17
2019-05-06T22:12:43.398Z,4.50
2019-05-06T22:15:12.037Z,4.87
2019-05-06T22:17:42.778Z,5.10
2019-05-06T22:20:10.986Z,5.13
2019-05-06T22:22:42.604Z,5.80
2019-05-06T22:25:12.523Z,5.20
2019-05-06T22:27:42.468Z,5.00
2019-05-06T22:30:12.144Z,4.90
2019-05-06T22:32:46.941Z,5.07
2019-05-06T22:35:16.924Z,5.40
2019-05-06T22:37:45.599Z,4.73
2019-05-06T22:40:14.717Z,4.47
2019-05-06T22:42:43.392Z,4.50
2019-05-06T22:45:13.097Z,5.03
2019-05-06T22:47:42.203Z,5.03
2019-05-06T22:50:13.259Z,5.00
2019-05-06T22:52:42.152Z,5.30
2019-05-06T22:55:13.037Z,5.23
2019-05-06T22:57:42.198Z,5.20
2019-05-06T23:00:15.215Z,5.23
2019-05-06T23:02:52.823Z,4.40
2019-05-06T23:05:23.112Z,5.10
2019-05-06T23:07:53.224Z,5.40
2019-05-06T23:10:24.562Z,5.10
2019-05-06T23:12:52.434Z,4.73
2019-05-06T23:15:21.309Z,5.07
2019-05-06T23:17:49.880Z,5.60
2019-05-06T23:20:18.627Z,5.37
2019-05-06T23:22:47.184Z,5.00
2019-05-06T23:25:15.745Z,4.77
2019-05-06T23:27:44.396Z,4.90
2019-05-06T23:30:13.732Z,5.17
2019-05-06T23:32:42.472Z,5.47
2019-05-06T23:35:13.569Z,5.60
2019-05-06T23:38:18.246Z,5.00
2019-05-06T23:41:23.374Z,5.20
2019-05-06T23:44:41.515Z,5.10
2019-05-06T23:47:34.439Z,4.93
2019-05-06T23:50:39.073Z,4.93
2019-05-06T23:53:43.510Z,5.10
2019-05-06T23:56:47.240Z,5.00
2019-05-06T23:59:17.739Z,4.83
